Terminal Aerodrome Forecast
Issued by NWS

Home | Current Version | Previous Version | Text Only | Print | Product List | Glossary On
Versions: 1 2 3 4 5 6 7 8 9 10 11 12
000
FTUS45 KABQ 110540
TAFFMN
TAF
KFMN 110540Z 1106/1206 04006KT P6SM SCT150 BKN200
     FM111000 VRB05KT P6SM FEW030 BKN060
     FM112000 29010KT P6SM SCT035 SCT050
     FM120100 VRB05KT P6SM SCT030=

USA.gov is the U.S. government's official web portal to all federal, state and local government web resources and services.